sensor_id;sensor_type;location;lat;lon;timestamp;pressure;altitude;pressure_sealevel;temperature;humidity
66486;BME280;53303;47.476;8.084;2023-02-14T00:02:11;96955.38;;;19.08;33.00
66486;BME280;53303;47.476;8.084;2023-02-14T00:04:40;96960.16;;;19.08;33.14
66486;BME280;53303;47.476;8.084;2023-02-14T00:07:11;96959.81;;;19.15;32.99
66486;BME280;53303;47.476;8.084;2023-02-14T00:09:38;96952.00;;;19.04;33.15
66486;BME280;53303;47.476;8.084;2023-02-14T00:12:06;96913.88;;;18.80;32.96
66486;BME280;53303;47.476;8.084;2023-02-14T00:14:35;96951.84;;;19.08;32.91
66486;BME280;53303;47.476;8.084;2023-02-14T00:17:19;96963.81;;;19.14;32.92
66486;BME280;53303;47.476;8.084;2023-02-14T00:19:44;96940.66;;;19.02;33.04
66486;BME280;53303;47.476;8.084;2023-02-14T00:22:12;96963.66;;;19.17;32.97
66486;BME280;53303;47.476;8.084;2023-02-14T00:24:37;96963.06;;;19.13;32.94
66486;BME280;53303;47.476;8.084;2023-02-14T00:27:05;96945.09;;;18.99;32.88
66486;BME280;53303;47.476;8.084;2023-02-14T00:29:31;96959.38;;;19.16;32.91
66486;BME280;53303;47.476;8.084;2023-02-14T00:31:57;96956.59;;;19.16;32.97
66486;BME280;53303;47.476;8.084;2023-02-14T00:34:23;96949.53;;;19.15;32.76
66486;BME280;53303;47.476;8.084;2023-02-14T00:36:49;96953.84;;;19.16;32.86
66486;BME280;53303;47.476;8.084;2023-02-14T00:39:15;96961.34;;;19.16;32.87
66486;BME280;53303;47.476;8.084;2023-02-14T00:41:41;96958.56;;;19.16;33.17
66486;BME280;53303;47.476;8.084;2023-02-14T00:44:08;96954.00;;;19.13;32.68
66486;BME280;53303;47.476;8.084;2023-02-14T00:46:34;96958.56;;;19.16;32.87
66486;BME280;53303;47.476;8.084;2023-02-14T00:49:02;96941.38;;;19.12;32.99
66486;BME280;53303;47.476;8.084;2023-02-14T00:51:30;96948.75;;;19.15;32.87
66486;BME280;53303;47.476;8.084;2023-02-14T00:53:56;96946.00;;;19.15;32.81
66486;BME280;53303;47.476;8.084;2023-02-14T00:56:24;96935.41;;;19.04;32.77
66486;BME280;53303;47.476;8.084;2023-02-14T00:58:52;96946.00;;;19.15;32.92
66486;BME280;53303;47.476;8.084;2023-02-14T01:01:20;96932.03;;;19.09;32.67
66486;BME280;53303;47.476;8.084;2023-02-14T01:03:46;96924.22;;;18.98;32.93
66486;BME280;53303;47.476;8.084;2023-02-14T01:06:11;96933.53;;;19.10;32.91
66486;BME280;53303;47.476;8.084;2023-02-14T01:08:39;96939.66;;;19.14;32.69
66486;BME280;53303;47.476;8.084;2023-02-14T01:11:10;96936.00;;;19.08;32.96
66486;BME280;53303;47.476;8.084;2023-02-14T01:13:38;96945.19;;;19.14;32.57
66486;BME280;53303;47.476;8.084;2023-02-14T01:16:10;96952.00;;;19.13;32.87
66486;BME280;53303;47.476;8.084;2023-02-14T01:18:39;96946.31;;;19.08;32.64
66486;BME280;53303;47.476;8.084;2023-02-14T01:21:10;96960.28;;;19.13;32.67
66486;BME280;53303;47.476;8.084;2023-02-14T01:23:38;96961.50;;;19.12;32.77
66486;BME280;53303;47.476;8.084;2023-02-14T01:26:05;96948.44;;;19.03;32.84
66486;BME280;53303;47.476;8.084;2023-02-14T01:28:31;96960.16;;;19.08;32.78
66486;BME280;53303;47.476;8.084;2023-02-14T01:31:03;96967.81;;;19.13;32.67
66486;BME280;53303;47.476;8.084;2023-02-14T01:33:29;96943.88;;;19.00;32.71
66486;BME280;53303;47.476;8.084;2023-02-14T01:35:54;96966.44;;;19.08;32.65
66486;BME280;53303;47.476;8.084;2023-02-14T01:38:19;96956.28;;;19.05;32.79
66486;BME280;53303;47.476;8.084;2023-02-14T01:40:45;96938.03;;;18.98;32.74
66486;BME280;53303;47.476;8.084;2023-02-14T01:43:14;96955.97;;;19.12;32.71
66486;BME280;53303;47.476;8.084;2023-02-14T01:45:42;96941.84;;;19.01;32.66
66486;BME280;53303;47.476;8.084;2023-02-14T01:48:10;96944.75;;;19.07;32.82
66486;BME280;53303;47.476;8.084;2023-02-14T01:50:38;96957.22;;;19.11;32.83
66486;BME280;53303;47.476;8.084;2023-02-14T01:53:11;96935.28;;;18.98;32.70
66486;BME280;53303;47.476;8.084;2023-02-14T01:55:41;96955.66;;;19.10;32.80
66486;BME280;53303;47.476;8.084;2023-02-14T01:58:12;96940.94;;;19.04;32.53
66486;BME280;53303;47.476;8.084;2023-02-14T02:00:39;96953.66;;;19.11;32.68
66486;BME280;53303;47.476;8.084;2023-02-14T02:03:33;96952.03;;;18.95;32.84
66486;BME280;53303;47.476;8.084;2023-02-14T02:08:39;96942.31;;;18.99;32.76
66486;BME280;53303;47.476;8.084;2023-02-14T02:11:06;96949.53;;;19.06;32.71
66486;BME280;53303;47.476;8.084;2023-02-14T02:13:34;96913.00;;;18.83;32.71
66486;BME280;53303;47.476;8.084;2023-02-14T02:16:23;96945.06;;;19.09;32.60
66486;BME280;53303;47.476;8.084;2023-02-14T02:24:17;96919.16;;;18.88;32.57
66486;BME280;53303;47.476;8.084;2023-02-14T02:41:03;96891.47;;;18.97;33.05
66486;BME280;53303;47.476;8.084;2023-02-14T02:52:01;96889.31;;;19.01;32.66
66486;BME280;53303;47.476;8.084;2023-02-14T02:54:57;96889.31;;;19.01;32.45
66486;BME280;53303;47.476;8.084;2023-02-14T02:57:40;96890.22;;;18.98;32.44
66486;BME280;53303;47.476;8.084;2023-02-14T03:00:08;96904.34;;;19.09;32.72
66486;BME280;53303;47.476;8.084;2023-02-14T03:02:37;96898.66;;;19.03;32.72
66486;BME280;53303;47.476;8.084;2023-02-14T03:05:26;96898.66;;;19.03;32.59
66486;BME280;53303;47.476;8.084;2023-02-14T03:07:52;96897.91;;;19.03;32.64
66486;BME280;53303;47.476;8.084;2023-02-14T03:26:53;96901.09;;;19.11;32.46
66486;BME280;53303;47.476;8.084;2023-02-14T03:37:19;96889.31;;;19.01;32.62
66486;BME280;53303;47.476;8.084;2023-02-14T03:40:05;96896.81;;;19.10;32.55
66486;BME280;53303;47.476;8.084;2023-02-14T03:42:45;96897.56;;;19.10;32.44
66486;BME280;53303;47.476;8.084;2023-02-14T03:45:19;96901.44;;;19.13;32.45
66486;BME280;53303;47.476;8.084;2023-02-14T03:47:47;96896.34;;;19.11;32.58
66486;BME280;53303;47.476;8.084;2023-02-14T03:50:18;96884.81;;;19.03;32.45
66486;BME280;53303;47.476;8.084;2023-02-14T03:52:50;96891.44;;;19.06;32.51
66486;BME280;53303;47.476;8.084;2023-02-14T03:55:23;96895.56;;;19.11;32.37
66486;BME280;53303;47.476;8.084;2023-02-14T03:58:00;96896.66;;;19.13;32.43
66486;BME280;53303;47.476;8.084;2023-02-14T04:00:29;96892.66;;;19.05;32.29
66486;BME280;53303;47.476;8.084;2023-02-14T04:03:01;96881.47;;;18.99;32.36
66486;BME280;53303;47.476;8.084;2023-02-14T04:05:32;96896.22;;;19.06;32.66
66486;BME280;53303;47.476;8.084;2023-02-14T04:07:58;96898.03;;;19.09;32.59
66486;BME280;53303;47.476;8.084;2023-02-14T04:10:24;96905.72;;;19.14;32.54
66486;BME280;53303;47.476;8.084;2023-02-14T04:12:51;96911.53;;;19.16;32.50
66486;BME280;53303;47.476;8.084;2023-02-14T04:15:16;96907.25;;;19.15;32.57
66486;BME280;53303;47.476;8.084;2023-02-14T04:17:44;96910.94;;;19.12;32.43
66486;BME280;53303;47.476;8.084;2023-02-14T04:20:31;96887.63;;;18.94;32.55
66486;BME280;53303;47.476;8.084;2023-02-14T04:22:56;96910.94;;;19.12;32.49
66486;BME280;53303;47.476;8.084;2023-02-14T04:25:24;96908.47;;;19.14;32.55
66486;BME280;53303;47.476;8.084;2023-02-14T04:27:50;96897.75;;;19.07;32.60
66486;BME280;53303;47.476;8.084;2023-02-14T04:30:18;96904.50;;;19.15;32.44
66486;BME280;53303;47.476;8.084;2023-02-14T04:32:45;96901.72;;;19.15;32.49
66486;BME280;53303;47.476;8.084;2023-02-14T04:35:15;96900.94;;;19.14;32.48
66486;BME280;53303;47.476;8.084;2023-02-14T04:37:41;96903.69;;;19.14;32.53
66486;BME280;53303;47.476;8.084;2023-02-14T04:40:06;96890.06;;;19.01;32.42
66486;BME280;53303;47.476;8.084;2023-02-14T04:42:34;96885.00;;;19.00;32.40
66486;BME280;53303;47.476;8.084;2023-02-14T04:45:00;96880.53;;;19.02;32.41
66486;BME280;53303;47.476;8.084;2023-02-14T04:47:25;96882.38;;;19.06;32.47
66486;BME280;53303;47.476;8.084;2023-02-14T04:49:53;96896.66;;;19.13;32.41
66486;BME280;53303;47.476;8.084;2023-02-14T04:52:18;96885.16;;;19.06;32.54
66486;BME280;53303;47.476;8.084;2023-02-14T04:54:49;96882.69;;;19.08;32.44
66486;BME280;53303;47.476;8.084;2023-02-14T04:57:14;96894.34;;;19.12;32.45
66486;BME280;53303;47.476;8.084;2023-02-14T04:59:42;96886.50;;;19.10;32.41
66486;BME280;53303;47.476;8.084;2023-02-14T05:02:09;96879.91;;;19.08;32.40
66486;BME280;53303;47.476;8.084;2023-02-14T05:04:39;96884.81;;;19.13;32.15
66486;BME280;53303;47.476;8.084;2023-02-14T05:07:05;96889.28;;;19.10;32.11
66486;BME280;53303;47.476;8.084;2023-02-14T05:09:30;96880.22;;;19.10;31.95
66486;BME280;53303;47.476;8.084;2023-02-14T05:11:56;96868.38;;;19.09;31.84
66486;BME280;53303;47.476;8.084;2023-02-14T05:14:24;96879.28;;;19.13;31.96
66486;BME280;53303;47.476;8.084;2023-02-14T05:16:49;96880.81;;;19.14;32.06
66486;BME280;53303;47.476;8.084;2023-02-14T05:19:14;96859.78;;;18.98;31.79
66486;BME280;53303;47.476;8.084;2023-02-14T05:21:40;96880.81;;;19.14;32.00
66486;BME280;53303;47.476;8.084;2023-02-14T05:24:05;96874.69;;;19.10;31.75
66486;BME280;53303;47.476;8.084;2023-02-14T05:26:31;96901.69;;;19.24;32.07
66486;BME280;53303;47.476;8.084;2023-02-14T05:28:57;96877.44;;;19.10;31.97
66486;BME280;53303;47.476;8.084;2023-02-14T05:31:24;96892.00;;;19.19;31.77
66486;BME280;53303;47.476;8.084;2023-02-14T05:33:50;96899.38;;;19.23;31.86
66486;BME280;53303;47.476;8.084;2023-02-14T05:36:18;96906.75;;;19.26;31.48
66486;BME280;53303;47.476;8.084;2023-02-14T05:38:45;96907.22;;;19.24;31.81
66486;BME280;53303;47.476;8.084;2023-02-14T05:41:13;96904.44;;;19.24;31.89
66486;BME280;53303;47.476;8.084;2023-02-14T05:43:41;96901.09;;;19.20;31.69
66486;BME280;53303;47.476;8.084;2023-02-14T05:46:06;96898.97;;;19.15;31.64
66486;BME280;53303;47.476;8.084;2023-02-14T05:48:36;96921.19;;;19.30;31.83
66486;BME280;53303;47.476;8.084;2023-02-14T05:51:06;96917.97;;;19.31;31.79
66486;BME280;53303;47.476;8.084;2023-02-14T05:53:34;96915.06;;;19.26;31.73
66486;BME280;53303;47.476;8.084;2023-02-14T05:56:00;96895.88;;;19.13;31.80
66486;BME280;53303;47.476;8.084;2023-02-14T05:58:26;96917.50;;;19.33;32.05
66486;BME280;53303;47.476;8.084;2023-02-14T06:00:51;96923.97;;;19.30;31.64
66486;BME280;53303;47.476;8.084;2023-02-14T06:03:19;96924.72;;;19.30;31.74
66486;BME280;53303;47.476;8.084;2023-02-14T06:05:44;96932.84;;;19.34;31.83
66486;BME280;53303;47.476;8.084;2023-02-14T06:08:09;96925.66;;;19.27;31.79
66486;BME280;53303;47.476;8.084;2023-02-14T06:10:35;96890.69;;;19.06;31.56
66486;BME280;53303;47.476;8.084;2023-02-14T06:13:03;96934.41;;;19.35;31.79
66486;BME280;53303;47.476;8.084;2023-02-14T06:15:33;96937.94;;;19.35;31.71
66486;BME280;53303;47.476;8.084;2023-02-14T06:18:02;96914.75;;;19.24;31.72
66486;BME280;53303;47.476;8.084;2023-02-14T06:20:30;96935.47;;;19.37;31.74
66486;BME280;53303;47.476;8.084;2023-02-14T06:22:56;96934.88;;;19.33;31.69
66486;BME280;53303;47.476;8.084;2023-02-14T06:25:22;96946.53;;;19.37;31.73
66486;BME280;53303;47.476;8.084;2023-02-14T06:27:47;96944.56;;;19.38;31.81
66486;BME280;53303;47.476;8.084;2023-02-14T06:30:13;96944.72;;;19.34;31.56
66486;BME280;53303;47.476;8.084;2023-02-14T06:32:39;96931.19;;;19.27;31.78
66486;BME280;53303;47.476;8.084;2023-02-14T06:35:07;96941.03;;;19.28;31.75
66486;BME280;53303;47.476;8.084;2023-02-14T06:37:38;96947.78;;;19.36;31.74
66486;BME280;53303;47.476;8.084;2023-02-14T06:40:10;96948.06;;;19.38;31.71
66486;BME280;53303;47.476;8.084;2023-02-14T06:42:36;96945.47;;;19.35;31.77
66486;BME280;53303;47.476;8.084;2023-02-14T06:45:02;96937.34;;;19.31;31.65
66486;BME280;53303;47.476;8.084;2023-02-14T06:47:28;96955.91;;;19.40;31.76
66486;BME280;53303;47.476;8.084;2023-02-14T06:49:53;96934.56;;;19.31;31.58
66486;BME280;53303;47.476;8.084;2023-02-14T06:52:19;96945.19;;;19.33;31.59
66486;BME280;53303;47.476;8.084;2023-02-14T06:54:44;96949.28;;;19.37;31.55
66486;BME280;53303;47.476;8.084;2023-02-14T06:57:12;96951.91;;;19.41;31.53
66486;BME280;53303;47.476;8.084;2023-02-14T06:59:38;96941.00;;;19.37;31.65
66486;BME280;53303;47.476;8.084;2023-02-14T07:02:03;96928.44;;;19.27;31.55
66486;BME280;53303;47.476;8.084;2023-02-14T07:04:31;96948.66;;;19.43;31.55
66486;BME280;53303;47.476;8.084;2023-02-14T07:06:57;96956.22;;;19.42;31.54
66486;BME280;53303;47.476;8.084;2023-02-14T07:09:22;96943.91;;;19.43;31.55
66486;BME280;53303;47.476;8.084;2023-02-14T07:11:53;96949.91;;;19.42;31.66
66486;BME280;53303;47.476;8.084;2023-02-14T07:14:19;96950.69;;;19.42;31.56
66486;BME280;53303;47.476;8.084;2023-02-14T07:16:44;96937.63;;;19.33;31.78
66486;BME280;53303;47.476;8.084;2023-02-14T07:19:09;96934.25;;;19.38;31.75
66486;BME280;53303;47.476;8.084;2023-02-14T07:21:35;96920.59;;;19.26;31.48
66486;BME280;53303;47.476;8.084;2023-02-14T07:24:00;96913.97;;;19.23;31.56
66486;BME280;53303;47.476;8.084;2023-02-14T07:26:30;96939.00;;;19.38;31.64
66486;BME280;53303;47.476;8.084;2023-02-14T07:28:56;96906.34;;;19.18;31.66
66486;BME280;53303;47.476;8.084;2023-02-14T07:31:21;96934.69;;;19.37;31.54
66486;BME280;53303;47.476;8.084;2023-02-14T07:33:50;96944.97;;;19.46;31.53
66486;BME280;53303;47.476;8.084;2023-02-14T07:36:18;96938.22;;;19.37;31.70
66486;BME280;53303;47.476;8.084;2023-02-14T07:38:43;96946.19;;;19.45;31.52
66486;BME280;53303;47.476;8.084;2023-02-14T07:41:10;96942.66;;;19.44;31.56
66486;BME280;53303;47.476;8.084;2023-02-14T07:43:36;96927.94;;;19.38;31.84
66486;BME280;53303;47.476;8.084;2023-02-14T07:46:04;96942.22;;;19.46;31.78
66486;BME280;53303;47.476;8.084;2023-02-14T07:48:32;96941.44;;;19.45;31.80
66486;BME280;53303;47.476;8.084;2023-02-14T07:51:00;96919.50;;;19.32;31.28
66486;BME280;53303;47.476;8.084;2023-02-14T07:53:26;96928.69;;;19.38;31.49
66486;BME280;53303;47.476;8.084;2023-02-14T07:55:51;96924.88;;;19.36;31.63
66486;BME280;53303;47.476;8.084;2023-02-14T07:58:20;96933.00;;;19.39;31.47
66486;BME280;53303;47.476;8.084;2023-02-14T08:00:45;96932.69;;;19.37;31.41
66486;BME280;53303;47.476;8.084;2023-02-14T08:03:14;96934.88;;;19.33;31.77
66486;BME280;53303;47.476;8.084;2023-02-14T08:05:40;96941.75;;;19.47;31.61
66486;BME280;53303;47.476;8.084;2023-02-14T08:08:08;96910.28;;;19.26;31.39
66486;BME280;53303;47.476;8.084;2023-02-14T08:10:33;96933.00;;;19.39;31.53
66486;BME280;53303;47.476;8.084;2023-02-14T08:13:01;96917.50;;;19.33;31.56
66486;BME280;53303;47.476;8.084;2023-02-14T08:15:30;96938.97;;;19.47;31.39
66486;BME280;53303;47.476;8.084;2023-02-14T08:18:15;96929.91;;;19.47;31.40
66486;BME280;53303;47.476;8.084;2023-02-14T08:20:42;96915.91;;;19.41;31.56
66486;BME280;53303;47.476;8.084;2023-02-14T08:23:11;96933.44;;;19.47;31.41
66486;BME280;53303;47.476;8.084;2023-02-14T08:25:36;96918.72;;;19.32;31.59
66486;BME280;53303;47.476;8.084;2023-02-14T08:28:03;96920.41;;;19.38;31.33
66486;BME280;53303;47.476;8.084;2023-02-14T08:30:28;96924.84;;;19.45;31.30
66486;BME280;53303;47.476;8.084;2023-02-14T08:32:54;96913.31;;;19.37;31.45
66486;BME280;53303;47.476;8.084;2023-02-14T08:35:19;96916.69;;;19.42;31.25
66486;BME280;53303;47.476;8.084;2023-02-14T08:37:47;96928.06;;;19.44;31.48
66486;BME280;53303;47.476;8.084;2023-02-14T08:40:15;96917.28;;;19.46;31.34
66486;BME280;53303;47.476;8.084;2023-02-14T08:42:40;96912.09;;;19.38;31.04
66486;BME280;53303;47.476;8.084;2023-02-14T08:45:08;96910.09;;;19.39;31.51
66486;BME280;53303;47.476;8.084;2023-02-14T08:47:33;96891.22;;;19.28;31.42
66486;BME280;53303;47.476;8.084;2023-02-14T08:50:08;96918.84;;;19.47;31.44
66486;BME280;53303;47.476;8.084;2023-02-14T08:52:38;96924.97;;;19.51;31.46
66486;BME280;53303;47.476;8.084;2023-02-14T08:55:08;96914.81;;;19.48;31.55
66486;BME280;53303;47.476;8.084;2023-02-14T08:57:34;96905.50;;;19.36;31.31
66486;BME280;53303;47.476;8.084;2023-02-14T09:00:03;96912.22;;;19.44;31.36
66486;BME280;53303;47.476;8.084;2023-02-14T09:02:31;96895.19;;;19.36;31.39
66486;BME280;53303;47.476;8.084;2023-02-14T09:04:59;96919.44;;;19.51;31.53
66486;BME280;53303;47.476;8.084;2023-02-14T09:07:25;96897.50;;;19.38;31.50
66486;BME280;53303;47.476;8.084;2023-02-14T09:09:53;96914.22;;;19.44;31.48
66486;BME280;53303;47.476;8.084;2023-02-14T09:12:18;96896.13;;;19.33;31.57
66486;BME280;53303;47.476;8.084;2023-02-14T09:14:44;96913.16;;;19.41;31.48
66486;BME280;53303;47.476;8.084;2023-02-14T09:17:11;96881.69;;;19.29;31.52
66486;BME280;53303;47.476;8.084;2023-02-14T09:19:38;96916.97;;;19.53;31.41
66486;BME280;53303;47.476;8.084;2023-02-14T09:22:10;96912.97;;;19.54;31.58
66486;BME280;53303;47.476;8.084;2023-02-14T09:24:36;96908.94;;;19.55;31.43
66486;BME280;53303;47.476;8.084;2023-02-14T09:27:03;96877.66;;;19.30;31.42
66486;BME280;53303;47.476;8.084;2023-02-14T09:29:29;96891.31;;;19.43;31.41
66486;BME280;53303;47.476;8.084;2023-02-14T09:31:56;96876.75;;;19.33;31.44
66486;BME280;53303;47.476;8.084;2023-02-14T09:34:22;96860.94;;;19.25;31.48
66486;BME280;53303;47.476;8.084;2023-02-14T09:36:50;96903.28;;;19.49;31.41
66486;BME280;53303;47.476;8.084;2023-02-14T09:39:16;96884.25;;;19.42;31.47
66486;BME280;53303;47.476;8.084;2023-02-14T09:44:58;96900.22;;;19.47;31.44
66486;BME280;53303;47.476;8.084;2023-02-14T09:49:59;96877.16;;;19.41;31.56
66486;BME280;53303;47.476;8.084;2023-02-14T09:52:27;96898.84;;;19.52;31.38
66486;BME280;53303;47.476;8.084;2023-02-14T09:54:57;96900.19;;;19.56;31.44
66486;BME280;53303;47.476;8.084;2023-02-14T09:57:30;96900.94;;;19.57;31.51
66486;BME280;53303;47.476;8.084;2023-02-14T10:05:22;96889.84;;;19.57;31.42
66486;BME280;53303;47.476;8.084;2023-02-14T10:11:07;96868.16;;;19.31;31.47
66486;BME280;53303;47.476;8.084;2023-02-14T10:13:51;96891.56;;;19.54;31.52
66486;BME280;53303;47.476;8.084;2023-02-14T10:16:26;96902.47;;;19.58;31.55
66486;BME280;53303;47.476;8.084;2023-02-14T10:19:00;96892.34;;;19.55;31.26
66486;BME280;53303;47.476;8.084;2023-02-14T10:21:42;96887.78;;;19.43;31.36
66486;BME280;53303;47.476;8.084;2023-02-14T10:24:20;96880.25;;;19.43;31.71
66486;BME280;53303;47.476;8.084;2023-02-14T10:26:50;96892.94;;;19.59;31.42
66486;BME280;53303;47.476;8.084;2023-02-14T10:29:19;96855.34;;;19.34;31.42
66486;BME280;53303;47.476;8.084;2023-02-14T10:32:11;96888.22;;;19.50;31.47
66486;BME280;53303;47.476;8.084;2023-02-14T10:34:50;96868.41;;;19.43;31.49
66486;BME280;53303;47.476;8.084;2023-02-14T10:42:50;96875.56;;;19.58;31.38
66486;BME280;53303;47.476;8.084;2023-02-14T10:54:18;96865.91;;;19.54;31.62
66486;BME280;53303;47.476;8.084;2023-02-14T10:59:25;96859.72;;;19.59;31.48
66486;BME280;53303;47.476;8.084;2023-02-14T11:01:52;96839.78;;;19.46;31.65
66486;BME280;53303;47.476;8.084;2023-02-14T11:04:21;96852.47;;;19.62;31.57
66486;BME280;53303;47.476;8.084;2023-02-14T11:06:47;96820.41;;;19.46;31.67
66486;BME280;53303;47.476;8.084;2023-02-14T11:09:17;96826.06;;;19.51;31.72
66486;BME280;53303;47.476;8.084;2023-02-14T11:11:52;96830.66;;;19.54;31.58
66486;BME280;53303;47.476;8.084;2023-02-14T11:14:39;96826.25;;;19.48;31.70
66486;BME280;53303;47.476;8.084;2023-02-14T11:17:27;96836.50;;;19.56;31.57
66486;BME280;53303;47.476;8.084;2023-02-14T11:19:59;96806.56;;;19.46;31.65
66486;BME280;53303;47.476;8.084;2023-02-14T11:22:33;96823.41;;;19.57;31.69
66486;BME280;53303;47.476;8.084;2023-02-14T11:27:46;96792.72;;;19.46;31.66
66486;BME280;53303;47.476;8.084;2023-02-14T11:30:35;96816.66;;;19.58;31.69
66486;BME280;53303;47.476;8.084;2023-02-14T11:33:33;96811.56;;;19.56;31.62
66486;BME280;53303;47.476;8.084;2023-02-14T11:36:00;96798.03;;;19.58;31.85
66486;BME280;53303;47.476;8.084;2023-02-14T11:38:35;96804.03;;;19.57;31.63
66486;BME280;53303;47.476;8.084;2023-02-14T11:41:04;96787.59;;;19.53;31.69
66486;BME280;53303;47.476;8.084;2023-02-14T11:43:34;96804.47;;;19.65;31.59
66486;BME280;53303;47.476;8.084;2023-02-14T11:48:32;96797.38;;;19.64;31.53
66486;BME280;53303;47.476;8.084;2023-02-14T11:53:49;96775.41;;;19.60;31.41
66486;BME280;53303;47.476;8.084;2023-02-14T11:56:14;96792.91;;;19.66;31.84
66486;BME280;53303;47.476;8.084;2023-02-14T12:01:33;96750.34;;;19.39;31.54
66486;BME280;53303;47.476;8.084;2023-02-14T12:04:03;96777.25;;;19.63;31.46
66486;BME280;53303;47.476;8.084;2023-02-14T12:06:32;96782.13;;;19.68;31.76
66486;BME280;53303;47.476;8.084;2023-02-14T12:11:55;96773.81;;;19.68;31.79
66486;BME280;53303;47.476;8.084;2023-02-14T12:14:24;96780.13;;;19.69;31.80
66486;BME280;53303;47.476;8.084;2023-02-14T12:19:36;96759.09;;;19.62;31.67
66486;BME280;53303;47.476;8.084;2023-02-14T12:22:05;96752.97;;;19.58;31.97
66486;BME280;53303;47.476;8.084;2023-02-14T12:24:32;96767.31;;;19.71;31.81
66486;BME280;53303;47.476;8.084;2023-02-14T12:27:20;96772.09;;;19.71;31.79
66486;BME280;53303;47.476;8.084;2023-02-14T12:29:51;96755.19;;;19.69;31.84
66486;BME280;53303;47.476;8.084;2023-02-14T12:32:24;96742.47;;;19.62;31.77
66486;BME280;53303;47.476;8.084;2023-02-14T12:35:02;96735.25;;;19.65;31.66
66486;BME280;53303;47.476;8.084;2023-02-14T12:37:39;96740.88;;;19.70;31.84
66486;BME280;53303;47.476;8.084;2023-02-14T12:43:24;96735.19;;;19.74;31.79
66486;BME280;53303;47.476;8.084;2023-02-14T12:51:11;96733.88;;;19.84;31.57
66486;BME280;53303;47.476;8.084;2023-02-14T12:57:00;96739.53;;;19.90;31.54
66486;BME280;53303;47.476;8.084;2023-02-14T13:13:45;96718.22;;;19.96;31.63
66486;BME280;53303;47.476;8.084;2023-02-14T13:16:54;96706.84;;;19.94;31.68
66486;BME280;53303;47.476;8.084;2023-02-14T13:22:04;96708.31;;;20.04;31.43
66486;BME280;53303;47.476;8.084;2023-02-14T13:24:44;96702.28;;;20.06;31.43
66486;BME280;53303;47.476;8.084;2023-02-14T13:27:23;96683.00;;;19.96;31.44
66486;BME280;53303;47.476;8.084;2023-02-14T13:29:51;96696.84;;;20.11;31.42
66486;BME280;53303;47.476;8.084;2023-02-14T13:32:21;96696.38;;;20.13;31.79
66486;BME280;53303;47.476;8.084;2023-02-14T13:34:50;96676.00;;;20.01;31.49
66486;BME280;53303;47.476;8.084;2023-02-14T13:37:25;96685.00;;;20.11;31.45
66486;BME280;53303;47.476;8.084;2023-02-14T13:39:57;96693.97;;;20.21;31.54
66486;BME280;53303;47.476;8.084;2023-02-14T13:48:04;96677.91;;;20.25;31.37
66486;BME280;53303;47.476;8.084;2023-02-14T13:50:33;96679.00;;;20.12;31.51
66486;BME280;53303;47.476;8.084;2023-02-14T13:53:03;96660.16;;;20.16;31.40
66486;BME280;53303;47.476;8.084;2023-02-14T13:55:35;96676.00;;;20.31;31.48
66486;BME280;53303;47.476;8.084;2023-02-14T13:58:18;96671.41;;;20.28;31.29
66486;BME280;53303;47.476;8.084;2023-02-14T14:00:51;96667.78;;;20.37;31.26
66486;BME280;53303;47.476;8.084;2023-02-14T14:06:08;96661.75;;;20.38;31.36
66486;BME280;53303;47.476;8.084;2023-02-14T14:08:43;96642.28;;;20.32;31.21
66486;BME280;53303;47.476;8.084;2023-02-14T14:13:54;96654.28;;;20.44;31.16
66486;BME280;53303;47.476;8.084;2023-02-14T14:21:39;96648.84;;;20.50;31.12
66486;BME280;53303;47.476;8.084;2023-02-14T14:24:26;96657.44;;;20.52;31.21
66486;BME280;53303;47.476;8.084;2023-02-14T14:27:23;96648.06;;;20.49;31.34
66486;BME280;53303;47.476;8.084;2023-02-14T14:29:57;96636.69;;;20.47;31.23
66486;BME280;53303;47.476;8.084;2023-02-14T14:32:34;96654.75;;;20.58;31.21
66486;BME280;53303;47.476;8.084;2023-02-14T14:35:01;96653.03;;;20.60;31.42
66486;BME280;53303;47.476;8.084;2023-02-14T14:37:32;96633.66;;;20.45;31.41
66486;BME280;53303;47.476;8.084;2023-02-14T14:40:05;96650.56;;;20.62;31.39
66486;BME280;53303;47.476;8.084;2023-02-14T14:42:36;96648.56;;;20.63;31.50
66486;BME280;53303;47.476;8.084;2023-02-14T14:45:17;96634.78;;;20.53;31.23
66486;BME280;53303;47.476;8.084;2023-02-14T14:47:49;96638.03;;;20.52;31.30
66486;BME280;53303;47.476;8.084;2023-02-14T14:50:21;96637.84;;;20.56;31.54
66486;BME280;53303;47.476;8.084;2023-02-14T14:52:51;96635.53;;;20.54;31.39
66486;BME280;53303;47.476;8.084;2023-02-14T14:57:53;96651.13;;;20.66;31.57
66486;BME280;53303;47.476;8.084;2023-02-14T15:00:21;96648.38;;;20.66;31.49
66486;BME280;53303;47.476;8.084;2023-02-14T15:02:56;96641.28;;;20.65;31.35
66486;BME280;53303;47.476;8.084;2023-02-14T15:05:30;96637.16;;;20.61;31.64
66486;BME280;53303;47.476;8.084;2023-02-14T15:08:21;96618.34;;;20.50;31.70
66486;BME280;53303;47.476;8.084;2023-02-14T15:10:56;96633.59;;;20.60;31.67
66486;BME280;53303;47.476;8.084;2023-02-14T15:16:26;96615.47;;;20.44;32.00
66486;BME280;53303;47.476;8.084;2023-02-14T15:18:57;96639.63;;;20.59;31.80
66486;BME280;53303;47.476;8.084;2023-02-14T15:21:24;96643.78;;;20.63;32.10
66486;BME280;53303;47.476;8.084;2023-02-14T15:23:54;96627.50;;;20.56;32.01
66486;BME280;53303;47.476;8.084;2023-02-14T15:26:43;96596.88;;;20.30;32.03
66486;BME280;53303;47.476;8.084;2023-02-14T15:29:21;96634.78;;;20.53;31.76
66486;BME280;53303;47.476;8.084;2023-02-14T15:31:48;96626.94;;;20.52;32.20
66486;BME280;53303;47.476;8.084;2023-02-14T15:34:14;96633.53;;;20.54;32.08
66486;BME280;53303;47.476;8.084;2023-02-14T15:36:42;96643.28;;;20.65;32.17
66486;BME280;53303;47.476;8.084;2023-02-14T15:39:14;96630.47;;;20.52;32.28
66486;BME280;53303;47.476;8.084;2023-02-14T15:41:44;96640.41;;;20.59;32.29
66486;BME280;53303;47.476;8.084;2023-02-14T15:44:23;96638.78;;;20.52;32.35
66486;BME280;53303;47.476;8.084;2023-02-14T15:47:11;96637.28;;;20.37;32.52
66486;BME280;53303;47.476;8.084;2023-02-14T15:49:42;96630.53;;;20.38;32.53